Time;durP1;ratioP1;P1;durP2;ratioP2;P2;SDS_P1;SDS_P2;PMS_P1;PMS_P2;Temp;Humidity;BMP_temperature;BMP_pressure;BME280_temperature;BME280_humidity;BME280_pressure;Samples;Min_cycle;Max_cycle;Signal;HPM_P1;HPM_P2
2022/06/28 00:00:04;;;;;;;11.43;7.80;;;;;;;;;;5013097;28;20172;-70
2022/06/28 00:02:30;;;;;;;9.45;7.20;;;;;;;;;;5012359;28;20046;-68
2022/06/28 00:04:56;;;;;;;10.25;7.50;;;;;;;;;;5013846;28;20546;-68
2022/06/28 00:07:21;;;;;;;11.02;7.55;;;;;;;;;;5013260;28;20033;-71
2022/06/28 00:09:47;;;;;;;13.80;8.70;;;;;;;;;;5013209;28;20038;-67
2022/06/28 00:12:13;;;;;;;15.30;8.23;;;;;;;;;;5013201;28;20149;-71
2022/06/28 00:17:23;;;;;;;12.05;8.27;;;;;;;;;;5013227;28;20452;-68
2022/06/28 00:19:49;;;;;;;16.45;7.40;;;;;;;;;;5012966;28;20061;-72
2022/06/28 00:22:21;;;;;;;11.25;6.72;;;;;;;;;;5109862;27;20385;-69
2022/06/28 00:24:47;;;;;;;11.40;8.10;;;;;;;;;;5109823;28;20045;-68
2022/06/28 00:27:13;;;;;;;10.93;7.80;;;;;;;;;;5109839;28;20522;-69
2022/06/28 00:29:39;;;;;;;11.15;7.78;;;;;;;;;;5108061;28;20056;-69
2022/06/28 00:32:06;;;;;;;12.88;7.43;;;;;;;;;;5108271;28;20057;-68
2022/06/28 00:34:32;;;;;;;11.02;6.63;;;;;;;;;;5103175;28;20036;-68
2022/06/28 00:36:58;;;;;;;9.30;6.95;;;;;;;;;;5094144;28;20021;-69
2022/06/28 00:39:24;;;;;;;15.18;7.60;;;;;;;;;;5097902;28;20417;-68
2022/06/28 00:41:50;;;;;;;10.10;7.90;;;;;;;;;;5089061;28;20028;-71
2022/06/28 00:44:16;;;;;;;11.15;6.32;;;;;;;;;;5087748;28;20535;-69
2022/06/28 00:46:42;;;;;;;9.38;7.13;;;;;;;;;;5089005;28;20059;-68
2022/06/28 00:49:10;;;;;;;13.57;7.43;;;;;;;;;;5061311;27;20048;-68
2022/06/28 00:51:35;;;;;;;10.30;6.38;;;;;;;;;;5072982;28;20028;-68
2022/06/28 00:54:02;;;;;;;8.95;6.55;;;;;;;;;;5069670;28;20446;-69
2022/06/28 00:56:28;;;;;;;9.27;6.80;;;;;;;;;;5067114;28;20028;-69
2022/06/28 00:58:55;;;;;;;11.18;7.18;;;;;;;;;;5084146;28;20029;-70
2022/06/28 01:01:21;;;;;;;12.82;7.75;;;;;;;;;;5068305;28;20029;-68
2022/06/28 01:03:49;;;;;;;9.88;7.35;;;;;;;;;;5067117;28;20040;-68
2022/06/28 01:06:15;;;;;;;13.27;6.47;;;;;;;;;;5067197;28;20029;-68
2022/06/28 01:08:45;;;;;;;13.82;6.45;;;;;;;;;;5067356;28;20033;-70
2022/06/28 01:11:19;;;;;;;9.27;6.90;;;;;;;;;;5067240;28;20029;-69
2022/06/28 01:13:51;;;;;;;10.68;7.45;;;;;;;;;;5083836;28;20032;-68
2022/06/28 01:16:20;;;;;;;14.48;7.22;;;;;;;;;;5066467;28;20033;-69
2022/06/28 01:18:47;;;;;;;11.52;6.72;;;;;;;;;;5066983;28;20059;-69
2022/06/28 01:21:35;;;;;;;8.43;6.00;;;;;;;;;;5067761;28;20080;-69
2022/06/28 01:24:02;;;;;;;10.63;6.20;;;;;;;;;;5065680;28;20054;-69
2022/06/28 01:26:52;;;;;;;11.02;6.50;;;;;;;;;;5068358;28;20039;-67
2022/06/28 01:29:19;;;;;;;12.50;7.53;;;;;;;;;;5066790;28;20082;-68
2022/06/28 01:31:54;;;;;;;9.77;6.82;;;;;;;;;;5063878;28;20460;-69
2022/06/28 01:34:21;;;;;;;9.77;6.30;;;;;;;;;;5053324;28;20114;-69
2022/06/28 01:36:47;;;;;;;10.88;6.57;;;;;;;;;;5053363;28;20501;-67
2022/06/28 01:39:15;;;;;;;9.38;6.40;;;;;;;;;;5053132;28;20120;-69
2022/06/28 01:41:43;;;;;;;11.93;6.15;;;;;;;;;;5053147;28;20041;-69
2022/06/28 01:44:14;;;;;;;10.10;7.25;;;;;;;;;;5053397;28;20083;-68
2022/06/28 01:47:01;;;;;;;9.90;7.50;;;;;;;;;;5053188;28;20102;-72
2022/06/28 01:49:53;;;;;;;15.20;8.13;;;;;;;;;;5038196;28;20045;-70
2022/06/28 01:52:21;;;;;;;16.88;9.20;;;;;;;;;;5053056;28;20116;-71
2022/06/28 01:54:47;;;;;;;11.10;7.13;;;;;;;;;;5052970;28;20437;-68
2022/06/28 01:57:15;;;;;;;14.10;8.23;;;;;;;;;;5054244;28;20128;-70
2022/06/28 01:59:51;;;;;;;10.85;7.75;;;;;;;;;;5052674;28;20079;-68
2022/06/28 02:02:39;;;;;;;9.68;6.90;;;;;;;;;;5046151;28;20076;-71
2022/06/28 02:05:43;;;;;;;8.77;6.72;;;;;;;;;;5049664;28;20138;-67
2022/06/28 02:08:10;;;;;;;11.30;7.25;;;;;;;;;;5052801;28;20047;-68
2022/06/28 02:10:49;;;;;;;10.18;7.45;;;;;;;;;;5068528;28;20120;-72
2022/06/28 02:13:15;;;;;;;10.13;7.80;;;;;;;;;;5066658;28;20124;-69
2022/06/28 02:15:41;;;;;;;11.55;8.15;;;;;;;;;;5060004;28;20373;-70
2022/06/28 02:18:07;;;;;;;11.57;7.78;;;;;;;;;;5052286;28;20128;-73
2022/06/28 02:20:33;;;;;;;12.82;7.45;;;;;;;;;;5052385;28;20511;-71
2022/06/28 02:23:00;;;;;;;9.77;7.55;;;;;;;;;;5052540;28;20041;-69
2022/06/28 02:25:27;;;;;;;14.18;7.93;;;;;;;;;;5052317;28;20376;-68
2022/06/28 02:27:53;;;;;;;11.32;7.22;;;;;;;;;;5052476;28;20037;-68
2022/06/28 02:30:21;;;;;;;9.55;7.93;;;;;;;;;;5052350;28;20531;-68
2022/06/28 02:32:48;;;;;;;10.18;8.02;;;;;;;;;;5052129;28;20037;-70
2022/06/28 02:40:43;;;;;;;11.35;8.10;;;;;;;;;;5051927;28;20091;-69
2022/06/28 02:43:08;;;;;;;15.80;9.18;;;;;;;;;;5053032;28;20418;-69
2022/06/28 02:45:39;;;;;;;12.13;8.65;;;;;;;;;;5051848;28;20383;-69
2022/06/28 02:48:06;;;;;;;15.90;8.63;;;;;;;;;;5051778;28;20040;-69
2022/06/28 02:50:32;;;;;;;17.05;8.57;;;;;;;;;;5051826;28;20036;-69
2022/06/28 02:52:59;;;;;;;11.98;8.68;;;;;;;;;;5053338;28;20057;-71
2022/06/28 02:55:25;;;;;;;16.95;8.27;;;;;;;;;;5051514;28;20080;-69
2022/06/28 02:57:50;;;;;;;12.13;9.13;;;;;;;;;;5051909;28;20499;-70
2022/06/28 03:00:18;;;;;;;16.75;9.00;;;;;;;;;;5053018;28;20495;-69
2022/06/28 03:02:46;;;;;;;10.73;9.05;;;;;;;;;;5051767;28;20028;-68
2022/06/28 03:05:17;;;;;;;14.38;8.77;;;;;;;;;;5051362;28;20111;-69
2022/06/28 03:07:45;;;;;;;17.08;9.32;;;;;;;;;;5051432;28;20041;-68
2022/06/28 03:10:12;;;;;;;10.20;8.90;;;;;;;;;;5051591;28;20136;-69
2022/06/28 03:12:38;;;;;;;11.35;8.63;;;;;;;;;;5051427;28;20044;-69
2022/06/28 03:15:05;;;;;;;13.57;9.45;;;;;;;;;;5051040;28;20480;-69
2022/06/28 03:17:31;;;;;;;13.15;9.05;;;;;;;;;;5067976;28;20044;-71
2022/06/28 03:19:57;;;;;;;20.38;9.38;;;;;;;;;;5068804;28;20090;-70
2022/06/28 03:22:23;;;;;;;19.27;9.77;;;;;;;;;;5069214;28;20082;-69
2022/06/28 03:24:49;;;;;;;10.63;8.07;;;;;;;;;;5050662;28;20041;-69
2022/06/28 03:27:15;;;;;;;12.18;8.25;;;;;;;;;;5069027;28;20506;-73
2022/06/28 03:29:42;;;;;;;9.60;7.78;;;;;;;;;;5065557;28;20028;-70
2022/06/28 03:32:11;;;;;;;10.95;7.22;;;;;;;;;;5051022;28;20032;-69
2022/06/28 03:34:37;;;;;;;9.07;6.35;;;;;;;;;;5067658;28;20104;-68
2022/06/28 03:37:04;;;;;;;14.15;7.30;;;;;;;;;;5050981;28;20091;-69
2022/06/28 03:39:34;;;;;;;9.95;6.82;;;;;;;;;;5050508;28;20036;-70
2022/06/28 03:42:00;;;;;;;12.10;7.25;;;;;;;;;;5050894;28;20068;-71
2022/06/28 03:44:28;;;;;;;10.93;8.05;;;;;;;;;;5060877;28;20025;-68
2022/06/28 03:46:55;;;;;;;12.65;6.63;;;;;;;;;;5050732;28;20064;-70
2022/06/28 03:49:50;;;;;;;12.73;7.25;;;;;;;;;;5052053;28;20048;-69
2022/06/28 03:52:42;;;;;;;11.52;7.50;;;;;;;;;;5051646;28;20045;-71
2022/06/28 03:55:27;;;;;;;14.52;7.30;;;;;;;;;;5060920;28;20050;-69
2022/06/28 03:57:55;;;;;;;18.88;8.63;;;;;;;;;;5070475;28;20033;-69
2022/06/28 04:00:21;;;;;;;9.35;6.85;;;;;;;;;;5065886;28;20311;-70
2022/06/28 04:02:49;;;;;;;9.55;6.55;;;;;;;;;;5059417;28;20033;-68
2022/06/28 04:05:23;;;;;;;7.63;6.00;;;;;;;;;;5067633;28;20033;-71
2022/06/28 04:07:49;;;;;;;13.30;6.82;;;;;;;;;;5060319;28;20087;-69
2022/06/28 04:10:19;;;;;;;10.65;5.88;;;;;;;;;;5050444;28;20032;-74
2022/06/28 04:12:48;;;;;;;7.20;5.78;;;;;;;;;;5055289;28;20029;-71
2022/06/28 04:15:17;;;;;;;10.27;7.28;;;;;;;;;;5050464;28;20033;-71
2022/06/28 04:17:47;;;;;;;12.75;5.65;;;;;;;;;;5068093;28;20510;-69
2022/06/28 04:20:33;;;;;;;13.00;6.38;;;;;;;;;;5066237;28;20106;-69
2022/06/28 04:23:03;;;;;;;15.55;7.35;;;;;;;;;;5057936;28;20094;-70
2022/06/28 04:25:30;;;;;;;10.88;5.97;;;;;;;;;;5049808;28;20061;-69
2022/06/28 04:28:04;;;;;;;10.93;5.85;;;;;;;;;;5057907;28;20028;-68
2022/06/28 04:30:31;;;;;;;13.63;6.28;;;;;;;;;;5070017;28;20070;-68
2022/06/28 04:33:00;;;;;;;14.20;6.68;;;;;;;;;;5060457;28;20166;-69
2022/06/28 04:35:32;;;;;;;11.65;6.60;;;;;;;;;;5055185;28;20037;-69
2022/06/28 04:37:59;;;;;;;14.15;6.38;;;;;;;;;;5064556;28;20531;-68
2022/06/28 04:40:57;;;;;;;12.65;5.80;;;;;;;;;;5066050;28;20036;-68
2022/06/28 04:43:56;;;;;;;19.08;5.75;;;;;;;;;;5050203;28;20384;-70
2022/06/28 04:46:31;;;;;;;11.70;5.38;;;;;;;;;;5067525;28;20033;-71
2022/06/28 04:49:01;;;;;;;13.15;6.00;;;;;;;;;;5068268;28;20040;-69
2022/06/28 04:51:46;;;;;;;10.05;5.50;;;;;;;;;;5049626;28;20037;-68
2022/06/28 04:54:19;;;;;;;10.77;5.22;;;;;;;;;;5049269;28;20033;-70
2022/06/28 04:57:05;;;;;;;15.38;5.25;;;;;;;;;;5056458;28;20047;-72
2022/06/28 04:59:31;;;;;;;7.93;4.70;;;;;;;;;;5070149;28;20363;-69
2022/06/28 05:01:58;;;;;;;12.07;6.15;;;;;;;;;;5068368;28;20039;-69
2022/06/28 05:04:24;;;;;;;6.65;5.40;;;;;;;;;;5066516;28;20044;-70
2022/06/28 05:07:02;;;;;;;17.50;5.93;;;;;;;;;;5050448;28;20166;-72
2022/06/28 05:09:28;;;;;;;9.05;4.20;;;;;;;;;;5053819;28;20087;-68
2022/06/28 05:11:54;;;;;;;9.65;4.72;;;;;;;;;;5063391;28;20028;-74
2022/06/28 05:14:30;;;;;;;6.55;4.60;;;;;;;;;;5069576;28;20114;-73
2022/06/28 05:16:56;;;;;;;10.57;4.82;;;;;;;;;;5053018;28;20445;-71
2022/06/28 05:19:23;;;;;;;12.82;5.70;;;;;;;;;;5053760;28;20052;-71
2022/06/28 05:21:49;;;;;;;15.93;6.00;;;;;;;;;;5067511;28;20498;-72
2022/06/28 05:24:15;;;;;;;9.95;5.80;;;;;;;;;;5068696;28;20495;-72
2022/06/28 05:26:45;;;;;;;11.50;5.97;;;;;;;;;;5068151;28;20431;-69
2022/06/28 05:29:16;;;;;;;22.05;6.10;;;;;;;;;;5073185;28;20055;-68
2022/06/28 05:31:43;;;;;;;11.75;5.85;;;;;;;;;;5073282;28;20037;-69
2022/06/28 05:34:09;;;;;;;9.52;6.28;;;;;;;;;;5069994;28;20029;-69
2022/06/28 05:36:39;;;;;;;9.68;5.38;;;;;;;;;;5052999;28;20124;-72
2022/06/28 05:39:05;;;;;;;14.93;6.05;;;;;;;;;;5058512;28;20078;-69
2022/06/28 05:41:32;;;;;;;8.10;4.82;;;;;;;;;;5073243;28;20473;-70
2022/06/28 05:43:59;;;;;;;10.93;5.10;;;;;;;;;;5074653;28;20021;-72
2022/06/28 05:46:25;;;;;;;12.38;6.18;;;;;;;;;;5071744;28;20074;-72
2022/06/28 05:48:52;;;;;;;12.18;6.28;;;;;;;;;;5074105;28;20424;-72
2022/06/28 05:51:18;;;;;;;7.20;5.00;;;;;;;;;;5073611;28;20032;-74
2022/06/28 05:53:44;;;;;;;12.30;5.30;;;;;;;;;;5074208;28;20374;-71
2022/06/28 05:56:10;;;;;;;7.22;4.30;;;;;;;;;;5072930;28;20032;-70
2022/06/28 05:58:36;;;;;;;11.13;5.10;;;;;;;;;;5074444;28;20039;-72
2022/06/28 06:01:03;;;;;;;7.65;4.57;;;;;;;;;;5072953;28;20554;-72
2022/06/28 06:03:32;;;;;;;9.82;5.90;;;;;;;;;;5072213;28;20052;-71
2022/06/28 06:05:58;;;;;;;9.70;5.00;;;;;;;;;;5073220;28;20063;-70
2022/06/28 06:08:24;;;;;;;7.40;4.47;;;;;;;;;;5072370;28;20129;-69
2022/06/28 06:10:51;;;;;;;12.10;5.38;;;;;;;;;;5071769;28;20040;-71
2022/06/28 06:13:17;;;;;;;10.15;5.05;;;;;;;;;;5073411;28;20032;-69
2022/06/28 06:15:43;;;;;;;11.55;5.30;;;;;;;;;;5073266;28;20064;-71
2022/06/28 06:18:09;;;;;;;9.85;4.68;;;;;;;;;;5070904;28;20020;-69
2022/06/28 06:20:35;;;;;;;7.18;4.53;;;;;;;;;;5072409;28;20048;-70
2022/06/28 06:23:00;;;;;;;9.52;4.35;;;;;;;;;;5073051;28;20124;-70
2022/06/28 06:25:56;;;;;;;8.73;4.53;;;;;;;;;;5027431;28;20038;-66
2022/06/28 06:28:21;;;;;;;11.82;7.93;;;;;;;;;;5053889;28;20070;-70
2022/06/28 06:30:47;;;;;;;6.35;4.93;;;;;;;;;;5055846;28;20017;-74
2022/06/28 06:33:17;;;;;;;10.98;5.07;;;;;;;;;;5072295;28;20055;-76
2022/06/28 06:36:15;;;;;;;14.80;5.00;;;;;;;;;;5050574;28;20090;-73
2022/06/28 06:38:42;;;;;;;7.72;4.35;;;;;;;;;;5072206;28;20040;-77
2022/06/28 06:41:08;;;;;;;7.60;4.47;;;;;;;;;;5072195;28;20502;-76
2022/06/28 06:43:36;;;;;;;5.93;4.28;;;;;;;;;;5061405;28;20064;-74
2022/06/28 06:46:22;;;;;;;6.88;4.43;;;;;;;;;;5053210;28;20051;-75
2022/06/28 06:48:49;;;;;;;8.82;4.20;;;;;;;;;;5062056;28;20088;-76
2022/06/28 06:51:16;;;;;;;8.18;4.25;;;;;;;;;;5072724;28;20070;-72
2022/06/28 06:53:41;;;;;;;12.35;4.50;;;;;;;;;;5073198;28;20415;-73
2022/06/28 06:56:07;;;;;;;6.22;4.50;;;;;;;;;;5071705;28;20032;-77
2022/06/28 06:58:33;;;;;;;9.45;5.22;;;;;;;;;;5071205;28;20028;-73
2022/06/28 07:00:59;;;;;;;7.00;4.50;;;;;;;;;;5071675;28;20399;-72
2022/06/28 07:03:25;;;;;;;10.93;5.10;;;;;;;;;;5071450;28;20071;-75
2022/06/28 07:05:51;;;;;;;9.48;5.05;;;;;;;;;;5071337;28;20078;-74
2022/06/28 07:08:17;;;;;;;8.48;4.07;;;;;;;;;;5071215;28;20451;-75
2022/06/28 07:10:53;;;;;;;8.75;4.40;;;;;;;;;;5071382;28;20332;-74
2022/06/28 07:13:19;;;;;;;12.63;5.25;;;;;;;;;;5071265;28;20029;-78
2022/06/28 07:15:45;;;;;;;12.95;5.28;;;;;;;;;;5070918;28;20024;-78
2022/06/28 07:18:12;;;;;;;6.88;3.78;;;;;;;;;;5071044;28;20064;-76
2022/06/28 07:20:37;;;;;;;9.80;4.40;;;;;;;;;;5071998;28;20145;-75
2022/06/28 07:23:04;;;;;;;5.70;3.50;;;;;;;;;;5072067;28;20372;-74
2022/06/28 07:25:29;;;;;;;5.15;3.60;;;;;;;;;;5071162;28;20482;-77
2022/06/28 07:27:55;;;;;;;5.85;3.40;;;;;;;;;;5072275;28;20111;-77
2022/06/28 07:30:21;;;;;;;7.32;3.20;;;;;;;;;;5070799;28;20120;-73
2022/06/28 07:32:47;;;;;;;6.43;3.40;;;;;;;;;;5071138;28;20025;-74
2022/06/28 07:35:13;;;;;;;7.68;3.80;;;;;;;;;;5071193;28;20035;-74
2022/06/28 07:37:39;;;;;;;5.72;3.30;;;;;;;;;;5071329;28;20382;-74
2022/06/28 07:40:07;;;;;;;5.35;3.47;;;;;;;;;;5070958;28;20385;-73
2022/06/28 07:42:36;;;;;;;6.40;3.60;;;;;;;;;;5072455;28;20218;-72
2022/06/28 07:45:20;;;;;;;5.57;3.53;;;;;;;;;;5072720;28;20059;-71
2022/06/28 07:47:47;;;;;;;6.93;3.78;;;;;;;;;;5071247;28;20131;-72
2022/06/28 07:53:09;;;;;;;7.68;3.72;;;;;;;;;;5070978;28;20042;-76
2022/06/28 07:55:59;;;;;;;9.00;3.88;;;;;;;;;;5071450;28;20055;-77
2022/06/28 07:58:33;;;;;;;7.38;3.50;;;;;;;;;;5070799;28;20043;-76
2022/06/28 08:01:03;;;;;;;6.60;3.85;;;;;;;;;;5070986;28;20113;-74
2022/06/28 08:03:29;;;;;;;5.05;3.92;;;;;;;;;;5070949;28;20043;-76
2022/06/28 08:05:55;;;;;;;5.53;4.00;;;;;;;;;;5071026;28;20036;-75
2022/06/28 08:08:24;;;;;;;7.68;4.05;;;;;;;;;;5070838;28;20031;-73
2022/06/28 08:14:30;;;;;;;7.78;3.92;;;;;;;;;;5065559;28;20055;-73
2022/06/28 08:16:57;;;;;;;7.82;3.67;;;;;;;;;;5066285;28;20500;-77
2022/06/28 08:19:23;;;;;;;6.55;3.60;;;;;;;;;;5050705;28;20029;-72
2022/06/28 08:21:50;;;;;;;7.10;3.65;;;;;;;;;;5065978;28;20499;-74
2022/06/28 08:24:16;;;;;;;5.00;3.67;;;;;;;;;;5049037;28;20064;-74
2022/06/28 08:26:43;;;;;;;6.53;3.90;;;;;;;;;;5049140;28;20484;-77
2022/06/28 08:29:10;;;;;;;8.90;3.72;;;;;;;;;;5065925;28;20032;-76
2022/06/28 08:31:35;;;;;;;8.98;3.75;;;;;;;;;;5068276;28;20029;-76
2022/06/28 08:34:02;;;;;;;6.30;3.38;;;;;;;;;;5069426;28;20115;-72
2022/06/28 08:36:28;;;;;;;4.88;3.42;;;;;;;;;;5069080;28;20044;-75
2022/06/28 08:38:54;;;;;;;11.32;3.75;;;;;;;;;;5071265;28;20511;-72
2022/06/28 08:41:20;;;;;;;4.57;3.13;;;;;;;;;;5071289;28;20170;-76
2022/06/28 08:43:46;;;;;;;6.70;2.85;;;;;;;;;;5074837;28;20383;-76
2022/06/28 08:46:13;;;;;;;3.55;2.60;;;;;;;;;;5075812;28;20031;-70
2022/06/28 08:48:43;;;;;;;4.70;2.90;;;;;;;;;;5075796;28;20028;-70
2022/06/28 08:51:10;;;;;;;4.78;2.97;;;;;;;;;;5075189;28;20383;-71
2022/06/28 08:53:39;;;;;;;4.22;2.78;;;;;;;;;;5075403;28;20021;-72
2022/06/28 08:56:06;;;;;;;4.38;2.85;;;;;;;;;;5075698;28;20028;-75
2022/06/28 08:58:32;;;;;;;7.75;2.88;;;;;;;;;;5075387;28;20024;-75
2022/06/28 09:00:58;;;;;;;3.85;2.85;;;;;;;;;;5074639;28;20199;-75
2022/06/28 09:03:24;;;;;;;6.20;2.85;;;;;;;;;;5075521;28;20489;-75
2022/06/28 09:05:50;;;;;;;4.20;2.67;;;;;;;;;;5075066;28;20033;-72
2022/06/28 09:08:16;;;;;;;7.32;2.70;;;;;;;;;;5075283;28;20033;-72
2022/06/28 09:10:45;;;;;;;3.67;2.70;;;;;;;;;;5075614;28;20036;-73
2022/06/28 09:13:13;;;;;;;3.13;2.60;;;;;;;;;;5075419;28;20422;-72
2022/06/28 09:15:56;;;;;;;5.03;2.63;;;;;;;;;;5073871;28;20056;-72
2022/06/28 09:18:27;;;;;;;7.80;2.70;;;;;;;;;;5075187;28;20482;-71
2022/06/28 09:20:57;;;;;;;3.33;2.55;;;;;;;;;;5074920;28;20044;-73
2022/06/28 09:23:34;;;;;;;4.68;3.17;;;;;;;;;;5075194;28;20119;-75
2022/06/28 09:26:06;;;;;;;4.43;2.70;;;;;;;;;;5075111;28;20391;-74
2022/06/28 09:28:34;;;;;;;3.40;2.87;;;;;;;;;;5074923;28;20032;-74
2022/06/28 09:31:18;;;;;;;6.20;2.75;;;;;;;;;;5074956;28;20265;-76
2022/06/28 09:33:46;;;;;;;6.90;3.28;;;;;;;;;;5074530;28;20060;-73
2022/06/28 09:36:14;;;;;;;5.97;2.95;;;;;;;;;;5074541;28;20457;-77
2022/06/28 09:38:41;;;;;;;4.57;2.92;;;;;;;;;;5074556;28;20036;-73
2022/06/28 09:41:27;;;;;;;6.95;3.70;;;;;;;;;;5074660;28;20045;-72
2022/06/28 09:43:56;;;;;;;4.93;3.10;;;;;;;;;;5074905;28;20138;-76
2022/06/28 09:46:26;;;;;;;6.15;2.83;;;;;;;;;;5074864;28;20021;-73
2022/06/28 09:49:03;;;;;;;5.13;3.00;;;;;;;;;;5074285;28;20029;-74
2022/06/28 09:51:31;;;;;;;5.70;2.92;;;;;;;;;;5074382;28;20528;-74
2022/06/28 09:54:02;;;;;;;6.22;3.17;;;;;;;;;;5073927;28;20108;-72
2022/06/28 09:56:33;;;;;;;5.60;3.15;;;;;;;;;;5073357;28;20480;-72
2022/06/28 09:59:00;;;;;;;8.27;2.90;;;;;;;;;;5053860;28;20494;-72
2022/06/28 10:01:25;;;;;;;5.45;3.00;;;;;;;;;;5063808;28;20036;-71
2022/06/28 10:03:53;;;;;;;5.50;3.00;;;;;;;;;;5054996;28;20139;-73
2022/06/28 10:06:21;;;;;;;6.25;3.08;;;;;;;;;;5063562;28;20099;-74
2022/06/28 10:08:48;;;;;;;5.00;3.13;;;;;;;;;;5073956;28;20115;-73
2022/06/28 10:11:15;;;;;;;5.95;2.80;;;;;;;;;;5074035;28;20191;-76
2022/06/28 10:16:46;;;;;;;8.77;2.88;;;;;;;;;;5062538;28;20396;-77
2022/06/28 10:19:15;;;;;;;12.35;4.40;;;;;;;;;;5054158;28;20025;-74
2022/06/28 10:21:46;;;;;;;12.82;3.97;;;;;;;;;;5059254;28;20044;-71
2022/06/28 10:24:13;;;;;;;15.75;4.35;;;;;;;;;;5073580;28;20391;-71
2022/06/28 10:26:44;;;;;;;12.43;3.70;;;;;;;;;;5073432;28;20021;-73
2022/06/28 10:29:10;;;;;;;6.28;2.70;;;;;;;;;;5073212;28;20387;-76
2022/06/28 10:31:43;;;;;;;4.00;2.65;;;;;;;;;;5071580;28;20120;-73
2022/06/28 10:34:14;;;;;;;5.90;2.97;;;;;;;;;;5073257;28;20074;-77
2022/06/28 10:36:46;;;;;;;8.82;2.78;;;;;;;;;;5072176;28;20467;-74
2022/06/28 10:39:18;;;;;;;16.58;4.90;;;;;;;;;;5073008;28;20137;-76
2022/06/28 10:41:47;;;;;;;6.90;3.10;;;;;;;;;;5073137;28;20048;-72
2022/06/28 10:44:46;;;;;;;8.70;3.00;;;;;;;;;;5073526;28;20032;-74
2022/06/28 10:47:16;;;;;;;7.18;2.53;;;;;;;;;;5053347;28;20132;-76
2022/06/28 10:49:42;;;;;;;5.88;2.75;;;;;;;;;;5052822;28;20472;-75
2022/06/28 10:52:14;;;;;;;5.50;2.75;;;;;;;;;;5052866;28;20036;-73
2022/06/28 10:55:05;;;;;;;9.80;3.40;;;;;;;;;;5053454;28;20045;-73
2022/06/28 10:57:30;;;;;;;6.65;3.20;;;;;;;;;;5043518;28;20044;-74
2022/06/28 10:59:59;;;;;;;6.60;3.00;;;;;;;;;;5053179;28;20375;-74
2022/06/28 11:02:50;;;;;;;5.82;3.08;;;;;;;;;;5053212;28;20125;-75
2022/06/28 11:05:18;;;;;;;7.57;3.10;;;;;;;;;;5052546;28;20033;-73
2022/06/28 11:07:57;;;;;;;5.13;2.90;;;;;;;;;;5053258;28;20041;-74
2022/06/28 11:10:23;;;;;;;2.90;2.60;;;;;;;;;;5052771;28;20051;-76
2022/06/28 11:12:49;;;;;;;4.70;3.00;;;;;;;;;;5071697;28;20099;-75
2022/06/28 11:15:32;;;;;;;7.20;2.90;;;;;;;;;;5072136;28;20115;-71
2022/06/28 11:17:59;;;;;;;6.95;3.20;;;;;;;;;;5071194;28;20086;-75
2022/06/28 11:20:25;;;;;;;4.28;2.60;;;;;;;;;;5072838;28;20037;-75
2022/06/28 11:22:52;;;;;;;3.78;2.70;;;;;;;;;;5073135;28;20075;-72
2022/06/28 11:25:20;;;;;;;4.07;2.60;;;;;;;;;;5073081;28;20033;-76
2022/06/28 11:27:57;;;;;;;4.88;2.63;;;;;;;;;;5072835;28;20032;-77
2022/06/28 11:30:27;;;;;;;4.55;3.10;;;;;;;;;;5073092;28;20040;-75
2022/06/28 11:32:55;;;;;;;5.50;2.97;;;;;;;;;;5072910;28;20017;-76
2022/06/28 11:35:24;;;;;;;4.28;2.40;;;;;;;;;;5072819;28;20033;-76
2022/06/28 11:37:57;;;;;;;5.45;3.15;;;;;;;;;;5072651;28;20095;-73
2022/06/28 11:40:41;;;;;;;6.53;3.03;;;;;;;;;;5065497;28;20037;-77
2022/06/28 11:43:12;;;;;;;6.30;2.42;;;;;;;;;;5064385;28;20495;-74
2022/06/28 11:45:45;;;;;;;4.38;2.67;;;;;;;;;;5064134;28;20040;-74
2022/06/28 11:48:15;;;;;;;8.52;3.00;;;;;;;;;;5066154;28;20029;-77
2022/06/28 11:50:43;;;;;;;5.55;2.47;;;;;;;;;;5065516;28;20024;-76
2022/06/28 11:53:11;;;;;;;5.35;2.47;;;;;;;;;;5067447;28;20029;-77
2022/06/28 11:55:42;;;;;;;10.05;3.33;;;;;;;;;;5063546;28;20024;-73
2022/06/28 11:58:15;;;;;;;3.65;2.80;;;;;;;;;;5061114;28;20035;-73
2022/06/28 12:01:04;;;;;;;5.55;2.67;;;;;;;;;;5069081;28;20028;-77
2022/06/28 12:03:31;;;;;;;2.80;2.28;;;;;;;;;;5051699;28;20032;-75
2022/06/28 12:06:00;;;;;;;4.78;2.60;;;;;;;;;;5061242;28;20471;-75
2022/06/28 12:08:45;;;;;;;4.00;2.42;;;;;;;;;;5065314;28;20097;-77
2022/06/28 12:11:24;;;;;;;5.10;3.03;;;;;;;;;;5070579;28;20463;-72
2022/06/28 12:14:14;;;;;;;4.85;2.60;;;;;;;;;;5071439;28;20032;-76
2022/06/28 12:16:47;;;;;;;7.43;3.20;;;;;;;;;;5065306;28;20044;-78
2022/06/28 12:19:17;;;;;;;;;;;;;;;;;;5064825;28;20025;-75
2022/06/28 12:22:16;;;;;;;4.95;3.00;;;;;;;;;;5061535;28;20014;-75
2022/06/28 12:24:46;;;;;;;4.22;2.92;;;;;;;;;;5063424;28;20068;-77
2022/06/28 12:27:14;;;;;;;4.70;2.80;;;;;;;;;;5071786;28;20032;-73
2022/06/28 12:29:41;;;;;;;4.97;3.10;;;;;;;;;;5070694;28;20089;-73
2022/06/28 12:32:07;;;;;;;5.60;2.75;;;;;;;;;;5070272;28;20121;-75
2022/06/28 12:34:33;;;;;;;3.92;2.22;;;;;;;;;;5061190;28;20487;-75
2022/06/28 12:36:59;;;;;;;3.85;2.65;;;;;;;;;;5061141;28;20025;-74
2022/06/28 12:39:25;;;;;;;3.95;2.55;;;;;;;;;;5057440;28;20339;-74
2022/06/28 12:41:51;;;;;;;8.57;3.00;;;;;;;;;;5065963;28;20025;-74
2022/06/28 12:44:18;;;;;;;4.07;2.90;;;;;;;;;;5063028;28;20070;-77
2022/06/28 12:46:44;;;;;;;4.13;2.60;;;;;;;;;;5064648;28;20406;-72
2022/06/28 12:49:10;;;;;;;4.53;3.03;;;;;;;;;;5060916;28;20045;-75
2022/06/28 12:51:37;;;;;;;3.72;2.55;;;;;;;;;;5064727;28;20147;-73
2022/06/28 12:54:03;;;;;;;4.75;2.53;;;;;;;;;;5051440;28;20491;-76
2022/06/28 12:56:29;;;;;;;3.53;2.70;;;;;;;;;;5059180;28;20062;-71
2022/06/28 12:58:58;;;;;;;4.80;2.75;;;;;;;;;;5071346;28;20445;-75
2022/06/28 13:01:25;;;;;;;4.65;2.95;;;;;;;;;;5071328;28;20028;-76
2022/06/28 13:03:51;;;;;;;3.78;2.97;;;;;;;;;;5070270;28;20040;-71
2022/06/28 13:06:17;;;;;;;4.65;2.58;;;;;;;;;;5070115;28;20029;-74
2022/06/28 13:08:43;;;;;;;5.25;3.22;;;;;;;;;;5066503;28;20033;-76
2022/06/28 13:11:09;;;;;;;5.57;2.50;;;;;;;;;;5059802;28;20079;-70
2022/06/28 13:13:35;;;;;;;3.67;2.75;;;;;;;;;;5057948;28;20051;-71
2022/06/28 13:16:01;;;;;;;7.15;2.65;;;;;;;;;;5071057;28;20331;-70
2022/06/28 13:18:28;;;;;;;7.28;2.65;;;;;;;;;;5071394;28;20040;-72
2022/06/28 13:20:53;;;;;;;3.85;2.70;;;;;;;;;;5071317;28;20041;-76
2022/06/28 13:23:26;;;;;;;3.80;2.33;;;;;;;;;;5069917;28;20058;-74
2022/06/28 13:25:53;;;;;;;4.10;2.67;;;;;;;;;;5070509;28;20111;-72
2022/06/28 13:28:19;;;;;;;4.45;2.38;;;;;;;;;;5072097;28;20023;-76
2022/06/28 13:30:45;;;;;;;5.07;3.05;;;;;;;;;;5070955;28;20032;-76
2022/06/28 13:33:12;;;;;;;5.13;2.70;;;;;;;;;;5063568;28;20031;-76
2022/06/28 13:35:41;;;;;;;6.10;2.97;;;;;;;;;;5065864;28;20431;-74
2022/06/28 13:38:07;;;;;;;5.32;2.78;;;;;;;;;;5068932;28;20039;-74
2022/06/28 13:40:33;;;;;;;3.88;3.10;;;;;;;;;;5058528;28;20025;-74
2022/06/28 13:42:58;;;;;;;5.38;2.72;;;;;;;;;;5065965;28;20053;-73
2022/06/28 13:45:24;;;;;;;6.70;2.90;;;;;;;;;;5056874;28;20045;-76
2022/06/28 13:47:50;;;;;;;4.65;2.60;;;;;;;;;;5056234;28;20086;-74
2022/06/28 13:50:16;;;;;;;2.90;2.60;;;;;;;;;;5074010;28;20420;-77
2022/06/28 13:52:45;;;;;;;5.25;2.80;;;;;;;;;;5075023;28;20408;-74
2022/06/28 13:55:12;;;;;;;3.92;2.60;;;;;;;;;;5069241;28;20029;-71
2022/06/28 13:57:39;;;;;;;4.15;2.40;;;;;;;;;;5056964;28;20021;-76
2022/06/28 14:00:08;;;;;;;4.05;2.40;;;;;;;;;;5055746;28;20093;-75
2022/06/28 14:02:35;;;;;;;3.83;2.75;;;;;;;;;;5057882;28;20142;-74
2022/06/28 14:05:01;;;;;;;4.38;2.55;;;;;;;;;;5059526;28;20029;-74
2022/06/28 14:07:27;;;;;;;3.63;2.45;;;;;;;;;;5059314;28;20031;-75
2022/06/28 14:09:53;;;;;;;4.78;2.70;;;;;;;;;;5067107;28;20491;-74
2022/06/28 14:12:19;;;;;;;4.80;2.67;;;;;;;;;;5060888;28;20041;-72
2022/06/28 14:14:44;;;;;;;2.97;2.50;;;;;;;;;;5063211;28;20487;-71
2022/06/28 14:17:11;;;;;;;3.35;2.60;;;;;;;;;;5060976;28;20438;-72
2022/06/28 14:19:37;;;;;;;4.40;2.67;;;;;;;;;;5054238;28;20116;-73
2022/06/28 14:22:03;;;;;;;4.05;2.50;;;;;;;;;;5054555;28;20128;-75
2022/06/28 14:24:29;;;;;;;4.38;2.70;;;;;;;;;;5054098;28;20033;-72
2022/06/28 14:26:55;;;;;;;4.15;2.50;;;;;;;;;;5058718;28;20356;-69
2022/06/28 14:29:23;;;;;;;4.05;2.50;;;;;;;;;;5054127;28;20033;-74
2022/06/28 14:31:49;;;;;;;4.03;2.63;;;;;;;;;;5053536;28;20029;-74
2022/06/28 14:34:15;;;;;;;6.10;2.30;;;;;;;;;;5053645;28;20095;-73
2022/06/28 14:36:44;;;;;;;5.63;2.60;;;;;;;;;;5061554;28;20126;-74
2022/06/28 14:39:12;;;;;;;8.10;2.30;;;;;;;;;;5073780;28;20029;-71
2022/06/28 14:41:39;;;;;;;4.47;2.33;;;;;;;;;;5073553;28;20016;-75
2022/06/28 14:44:06;;;;;;;2.97;2.22;;;;;;;;;;5062033;28;20061;-74
2022/06/28 14:46:32;;;;;;;4.93;2.15;;;;;;;;;;5053933;28;20043;-73
2022/06/28 14:48:58;;;;;;;5.60;2.58;;;;;;;;;;5054068;28;20024;-72
2022/06/28 14:51:24;;;;;;;3.35;2.35;;;;;;;;;;5056201;28;20520;-74
2022/06/28 14:53:50;;;;;;;4.93;2.08;;;;;;;;;;5061853;28;20021;-74
2022/06/28 14:56:16;;;;;;;2.53;2.00;;;;;;;;;;5059770;28;20032;-72
2022/06/28 14:58:43;;;;;;;3.28;2.03;;;;;;;;;;5073062;28;20025;-72
2022/06/28 15:01:08;;;;;;;4.28;2.42;;;;;;;;;;5062206;28;20368;-73
2022/06/28 15:03:34;;;;;;;4.07;2.08;;;;;;;;;;5053933;28;20025;-70
2022/06/28 15:06:00;;;;;;;5.43;2.20;;;;;;;;;;5058737;28;20051;-76
2022/06/28 15:08:27;;;;;;;3.20;2.05;;;;;;;;;;5060470;28;20033;-76